createdAt,value
2023-03-19T00:01:05.022Z,5.15
2023-03-19T00:03:42.895Z,5.15
2023-03-19T00:06:11.029Z,5.13
2023-03-19T00:08:39.084Z,5.12
2023-03-19T00:11:11.722Z,5.11
2023-03-19T00:13:40.873Z,5.10
2023-03-19T00:16:09.098Z,5.08
2023-03-19T00:18:37.434Z,5.07
2023-03-19T00:21:06.149Z,5.06
2023-03-19T00:23:34.939Z,5.05
2023-03-19T00:26:04.065Z,5.03
2023-03-19T00:28:32.361Z,5.02
2023-03-19T00:31:10.706Z,5.01
2023-03-19T00:33:39.265Z,4.98
2023-03-19T00:36:08.160Z,4.96
2023-03-19T00:38:36.777Z,4.93
2023-03-19T00:41:06.265Z,4.91
2023-03-19T00:43:34.915Z,4.89
2023-03-19T00:46:03.521Z,4.87
2023-03-19T00:48:32.058Z,4.84
2023-03-19T00:51:09.598Z,4.80
2023-03-19T00:53:42.987Z,4.77
2023-03-19T00:56:13.648Z,4.74
2023-03-19T00:58:42.129Z,4.70
2023-03-19T01:01:13.047Z,4.66
2023-03-19T01:03:42.008Z,4.63
2023-03-19T01:06:10.393Z,4.61
2023-03-19T01:08:38.893Z,4.59
2023-03-19T01:11:09.885Z,4.58
2023-03-19T01:13:38.922Z,4.59
2023-03-19T01:16:07.579Z,4.60
2023-03-19T01:18:35.879Z,4.60
2023-03-19T01:21:05.166Z,4.58
2023-03-19T01:23:38.779Z,4.58
2023-03-19T01:26:07.399Z,4.57
2023-03-19T01:28:35.979Z,4.55
2023-03-19T01:31:08.416Z,4.54
2023-03-19T01:34:06.624Z,4.53
2023-03-19T01:36:49.640Z,4.52
2023-03-19T01:39:24.089Z,4.50
2023-03-19T01:41:52.765Z,4.49
2023-03-19T01:44:37.599Z,4.47
2023-03-19T01:47:36.178Z,4.45
2023-03-19T01:50:43.776Z,4.43
2023-03-19T01:53:32.738Z,4.42
2023-03-19T01:56:20.274Z,4.39
2023-03-19T01:59:27.949Z,4.37
2023-03-19T02:02:31.717Z,4.33
2023-03-19T02:05:10.865Z,4.29
2023-03-19T02:07:42.637Z,4.25
2023-03-19T02:10:15.161Z,4.22
2023-03-19T02:12:45.009Z,4.19
2023-03-19T02:15:13.254Z,4.16
2023-03-19T02:17:42.808Z,4.13
2023-03-19T02:20:21.408Z,4.10
2023-03-19T02:23:06.017Z,4.07
2023-03-19T02:25:46.281Z,4.04
2023-03-19T02:28:17.514Z,4.01
2023-03-19T02:30:46.517Z,3.99
2023-03-19T02:36:17.405Z,3.94
2023-03-19T02:38:48.113Z,3.92
2023-03-19T02:41:16.234Z,3.90
2023-03-19T02:43:44.449Z,3.88
2023-03-19T02:46:13.928Z,3.87
2023-03-19T02:48:42.461Z,3.87
2023-03-19T02:51:10.768Z,3.85
2023-03-19T02:53:39.125Z,3.83
2023-03-19T02:56:07.570Z,3.81
2023-03-19T02:58:35.797Z,3.79
2023-03-19T03:01:04.538Z,3.75
2023-03-19T03:03:32.953Z,3.72
2023-03-19T03:06:01.123Z,3.69
2023-03-19T03:08:29.295Z,3.66
2023-03-19T03:10:57.758Z,3.64
2023-03-19T03:13:26.027Z,3.61
2023-03-19T03:15:54.123Z,3.59
2023-03-19T03:18:22.609Z,3.56
2023-03-19T03:20:50.938Z,3.54
2023-03-19T03:23:20.506Z,3.52
2023-03-19T03:25:52.968Z,3.50
2023-03-19T03:28:21.182Z,3.49
2023-03-19T03:30:49.290Z,3.48
2023-03-19T03:33:17.523Z,3.46
2023-03-19T03:35:46.485Z,3.45
2023-03-19T03:38:14.740Z,3.43
2023-03-19T03:40:43.572Z,3.41
2023-03-19T03:43:11.641Z,3.39
2023-03-19T03:45:39.837Z,3.37
2023-03-19T03:48:09.556Z,3.36
2023-03-19T03:50:37.699Z,3.34
2023-03-19T03:53:08.902Z,3.33
2023-03-19T03:55:37.405Z,3.32
2023-03-19T03:58:06.561Z,3.30
2023-03-19T04:05:20.501Z,3.24
2023-03-19T04:07:48.780Z,3.22
2023-03-19T04:10:17.076Z,3.19
2023-03-19T04:12:46.092Z,3.15
2023-03-19T04:15:14.558Z,3.12
2023-03-19T04:17:44.426Z,3.09
2023-03-19T04:20:14.403Z,3.06
2023-03-19T04:22:42.691Z,3.04
2023-03-19T04:25:11.406Z,3.01
2023-03-19T04:27:39.860Z,2.97
2023-03-19T04:34:37.600Z,2.90
2023-03-19T04:37:06.349Z,2.86
2023-03-19T04:39:36.160Z,2.85
2023-03-19T04:42:04.634Z,2.83
2023-03-19T04:44:37.743Z,2.82
2023-03-19T04:47:06.078Z,2.81
2023-03-19T04:49:42.762Z,2.79
2023-03-19T04:52:11.032Z,2.77
2023-03-19T04:54:39.194Z,2.75
2023-03-19T04:57:07.896Z,2.74
2023-03-19T04:59:38.569Z,2.71
2023-03-19T05:02:07.112Z,2.70
2023-03-19T05:04:37.517Z,2.72
2023-03-19T05:07:08.550Z,2.73
2023-03-19T05:09:37.974Z,2.76
2023-03-19T05:12:06.939Z,2.77
2023-03-19T05:14:39.780Z,2.75
2023-03-19T05:17:15.726Z,2.73
2023-03-19T05:20:07.301Z,2.75
2023-03-19T05:22:35.680Z,2.79
2023-03-19T05:25:04.296Z,2.87
2023-03-19T05:27:33.067Z,2.98
2023-03-19T05:30:11.039Z,3.09
2023-03-19T05:32:41.898Z,3.17
2023-03-19T05:35:15.506Z,3.28
2023-03-19T05:37:43.919Z,3.44
2023-03-19T05:40:13.404Z,3.68
2023-03-19T05:42:42.887Z,3.96
2023-03-19T05:45:12.784Z,4.28
2023-03-19T05:47:50.340Z,4.67
2023-03-19T05:50:19.054Z,5.05
2023-03-19T05:53:05.412Z,5.46
2023-03-19T05:55:34.836Z,5.81
2023-03-19T05:58:07.819Z,6.11
2023-03-19T06:00:36.919Z,6.33
2023-03-19T06:03:06.671Z,6.58
2023-03-19T06:05:42.992Z,6.96
2023-03-19T06:08:30.558Z,7.43
2023-03-19T06:11:19.227Z,7.87
2023-03-19T06:13:51.867Z,8.27
2023-03-19T06:16:21.074Z,8.64
2023-03-19T06:18:53.985Z,8.91
2023-03-19T06:21:22.290Z,9.08
2023-03-19T06:23:51.511Z,9.28
2023-03-19T06:26:26.566Z,9.47
2023-03-19T06:28:57.559Z,9.68
2023-03-19T06:31:27.696Z,9.91
2023-03-19T06:34:01.670Z,10.14
2023-03-19T06:36:39.886Z,10.37
2023-03-19T06:39:10.528Z,10.62
2023-03-19T06:41:38.749Z,11.00
2023-03-19T06:44:13.494Z,11.49
2023-03-19T06:46:42.279Z,11.91
2023-03-19T06:49:10.672Z,12.19
2023-03-19T06:51:38.772Z,12.59
2023-03-19T06:54:07.282Z,13.05
2023-03-19T06:56:35.513Z,13.32
2023-03-19T06:59:04.148Z,13.52
2023-03-19T07:01:32.928Z,13.63
2023-03-19T07:04:01.098Z,13.74
2023-03-19T07:06:30.223Z,13.80
2023-03-19T07:09:16.460Z,13.83
2023-03-19T07:11:51.048Z,13.91
2023-03-19T07:14:19.472Z,14.02
2023-03-19T07:16:47.641Z,14.14
2023-03-19T07:19:16.428Z,14.22
2023-03-19T07:21:44.819Z,14.36
2023-03-19T07:24:13.030Z,14.63
2023-03-19T07:26:42.497Z,14.92
2023-03-19T07:29:11.379Z,15.20
2023-03-19T07:31:39.946Z,15.54
2023-03-19T07:34:08.545Z,15.94
2023-03-19T07:36:37.052Z,16.29
2023-03-19T07:39:05.579Z,16.58
2023-03-19T07:41:33.619Z,16.74
2023-03-19T07:44:03.014Z,16.72
2023-03-19T07:46:32.540Z,16.78
2023-03-19T07:49:01.076Z,16.86
2023-03-19T07:51:29.415Z,17.09
2023-03-19T07:53:57.472Z,17.34
2023-03-19T07:56:25.955Z,17.54
2023-03-19T07:58:54.401Z,17.64
2023-03-19T08:01:22.513Z,17.73
2023-03-19T08:03:51.151Z,17.81
2023-03-19T08:06:22.039Z,17.87
2023-03-19T08:08:50.728Z,17.92
2023-03-19T08:11:19.726Z,18.02
2023-03-19T08:13:48.050Z,18.08
2023-03-19T08:16:16.006Z,18.13
2023-03-19T08:18:43.992Z,18.25
2023-03-19T08:21:12.330Z,18.29
2023-03-19T08:23:40.477Z,18.31
2023-03-19T08:26:08.426Z,18.36
2023-03-19T08:28:37.454Z,18.35
2023-03-19T08:31:13.124Z,18.26
2023-03-19T08:33:41.653Z,18.04
2023-03-19T08:36:12.252Z,17.84
2023-03-19T08:38:40.558Z,17.73
2023-03-19T08:41:09.751Z,17.69
2023-03-19T08:43:37.897Z,17.69
2023-03-19T08:46:06.646Z,17.78
2023-03-19T08:48:35.979Z,17.82
2023-03-19T08:51:04.227Z,17.81
2023-03-19T08:53:33.139Z,17.95
2023-03-19T08:56:02.222Z,18.11
2023-03-19T08:58:30.950Z,18.20
2023-03-19T09:01:08.900Z,18.32
2023-03-19T09:03:37.451Z,18.25
2023-03-19T09:06:07.203Z,18.15
2023-03-19T09:08:36.293Z,18.02
2023-03-19T09:11:05.928Z,17.59
2023-03-19T09:13:34.571Z,17.06
2023-03-19T09:16:02.835Z,16.86
2023-03-19T09:18:31.498Z,16.88
2023-03-19T09:20:59.980Z,16.99
2023-03-19T09:23:28.589Z,17.06
2023-03-19T09:25:57.072Z,17.10
2023-03-19T09:28:25.760Z,17.02
2023-03-19T09:30:54.434Z,16.74
2023-03-19T09:33:22.791Z,16.58
2023-03-19T09:35:53.867Z,16.48
2023-03-19T09:38:24.169Z,16.48
2023-03-19T09:40:59.737Z,16.44
2023-03-19T09:43:47.221Z,16.28
2023-03-19T09:46:23.827Z,16.11
2023-03-19T09:49:03.195Z,16.04
2023-03-19T09:51:43.694Z,16.14
2023-03-19T09:54:39.250Z,16.40
2023-03-19T09:57:10.036Z,16.74
2023-03-19T09:59:40.794Z,16.99
2023-03-19T10:02:41.955Z,17.20
2023-03-19T10:05:25.963Z,17.23
2023-03-19T10:08:19.811Z,17.22
2023-03-19T10:10:56.252Z,17.44
2023-03-19T10:13:30.413Z,17.68
2023-03-19T10:16:01.477Z,17.85
2023-03-19T10:18:36.180Z,18.02
2023-03-19T10:21:11.985Z,18.12
2023-03-19T10:23:46.989Z,18.31
2023-03-19T10:26:21.703Z,18.46
2023-03-19T10:29:20.751Z,18.49
2023-03-19T10:32:21.104Z,18.53
2023-03-19T10:34:53.317Z,18.56
2023-03-19T10:37:28.036Z,18.41
2023-03-19T10:40:00.096Z,18.33
2023-03-19T10:42:49.890Z,18.13
2023-03-19T10:45:30.119Z,17.84
2023-03-19T10:47:59.976Z,17.62
2023-03-19T10:51:01.604Z,17.36
2023-03-19T10:53:34.751Z,17.37
2023-03-19T10:56:26.804Z,17.47
2023-03-19T10:59:07.626Z,17.45
2023-03-19T11:04:34.630Z,17.45
2023-03-19T11:07:08.860Z,17.49
2023-03-19T11:09:38.007Z,17.57
2023-03-19T11:12:29.524Z,17.65
2023-03-19T11:14:58.383Z,17.69
2023-03-19T11:17:28.018Z,17.71
2023-03-19T11:19:57.926Z,17.68
2023-03-19T11:22:28.144Z,17.59
2023-03-19T11:25:13.897Z,17.38
2023-03-19T11:27:43.673Z,17.07
2023-03-19T11:30:18.143Z,16.92
2023-03-19T11:33:04.804Z,16.86
2023-03-19T11:35:36.079Z,16.79
2023-03-19T11:38:05.130Z,16.82
2023-03-19T11:40:52.728Z,16.93
2023-03-19T11:43:21.162Z,17.07
2023-03-19T11:45:52.290Z,17.10
2023-03-19T11:48:35.389Z,17.01
2023-03-19T11:51:12.624Z,17.09
2023-03-19T11:53:49.864Z,17.28
2023-03-19T11:56:23.271Z,17.43
2023-03-19T11:59:09.860Z,17.57
2023-03-19T12:01:47.025Z,17.66
2023-03-19T12:04:21.279Z,17.70
2023-03-19T12:07:08.110Z,17.53
2023-03-19T12:09:49.684Z,17.30
2023-03-19T12:12:17.675Z,17.25
2023-03-19T12:14:45.776Z,17.26
2023-03-19T12:17:22.774Z,17.30
2023-03-19T12:19:50.739Z,17.33
2023-03-19T12:22:37.106Z,17.36
2023-03-19T12:25:31.244Z,17.41
2023-03-19T12:28:05.226Z,17.45
2023-03-19T12:30:33.418Z,17.54
2023-03-19T12:33:11.074Z,17.57
2023-03-19T12:35:39.951Z,17.57
2023-03-19T12:38:19.606Z,17.56
2023-03-19T12:40:50.701Z,17.51
2023-03-19T12:43:22.045Z,17.28
2023-03-19T12:45:58.194Z,17.00
2023-03-19T12:48:28.860Z,16.73
2023-03-19T12:51:00.158Z,16.61
2023-03-19T12:53:36.338Z,16.55
2023-03-19T12:56:10.572Z,16.50
2023-03-19T12:58:47.870Z,16.48
2023-03-19T13:01:37.549Z,16.51
2023-03-19T13:04:14.674Z,16.54
2023-03-19T13:06:52.504Z,16.62
2023-03-19T13:09:27.073Z,16.75
2023-03-19T13:12:02.296Z,16.87
2023-03-19T13:14:45.398Z,16.99
2023-03-19T13:17:24.120Z,17.12
2023-03-19T13:19:57.124Z,17.23
2023-03-19T13:22:27.786Z,17.27
2023-03-19T13:24:57.381Z,17.10
2023-03-19T13:27:32.940Z,16.91
2023-03-19T13:30:07.494Z,16.75
2023-03-19T13:32:41.501Z,16.70
2023-03-19T13:35:24.483Z,16.65
2023-03-19T13:37:57.345Z,16.49
2023-03-19T13:40:46.138Z,16.46
2023-03-19T13:43:29.567Z,16.45
2023-03-19T13:46:11.965Z,16.44
2023-03-19T13:48:45.855Z,16.37
2023-03-19T13:51:19.905Z,16.35
2023-03-19T13:54:12.940Z,16.36
2023-03-19T13:57:01.356Z,16.35
2023-03-19T13:59:31.420Z,16.38
2023-03-19T14:02:00.499Z,16.40
2023-03-19T14:04:31.146Z,16.41
2023-03-19T14:07:19.361Z,16.38
2023-03-19T14:09:51.652Z,16.35
2023-03-19T14:12:20.239Z,16.38
2023-03-19T14:15:07.354Z,16.39
2023-03-19T14:17:42.760Z,16.41
2023-03-19T14:20:12.568Z,16.41
2023-03-19T14:22:40.865Z,16.36
2023-03-19T14:25:18.967Z,16.25
2023-03-19T14:27:48.289Z,16.18
2023-03-19T14:30:26.558Z,16.14
2023-03-19T14:32:55.940Z,16.10
2023-03-19T14:35:25.468Z,16.06
2023-03-19T14:37:54.322Z,15.98
2023-03-19T14:40:23.925Z,15.91
2023-03-19T14:42:57.992Z,15.85
2023-03-19T14:45:40.109Z,15.81
2023-03-19T14:48:38.458Z,15.79
2023-03-19T14:51:09.625Z,15.81
2023-03-19T14:53:41.736Z,15.82
2023-03-19T14:56:19.067Z,15.75
2023-03-19T14:58:51.164Z,15.66
2023-03-19T15:01:19.965Z,15.61
2023-03-19T15:03:53.250Z,15.56
2023-03-19T15:06:21.955Z,15.52
2023-03-19T15:08:50.218Z,15.46
2023-03-19T15:11:36.396Z,15.39
2023-03-19T15:14:04.417Z,15.30
2023-03-19T15:16:38.756Z,15.22
2023-03-19T15:19:11.212Z,15.14
2023-03-19T15:21:39.816Z,15.06
2023-03-19T15:24:14.775Z,14.99
2023-03-19T15:26:43.582Z,14.92
2023-03-19T15:29:13.598Z,14.85
2023-03-19T15:31:51.063Z,14.78
2023-03-19T15:34:23.087Z,14.73
2023-03-19T15:37:15.291Z,14.67
2023-03-19T15:39:49.136Z,14.62
2023-03-19T15:42:21.079Z,14.58
2023-03-19T15:44:55.529Z,14.55
2023-03-19T15:47:32.258Z,14.51
2023-03-19T15:50:12.651Z,14.45
2023-03-19T15:52:46.298Z,14.40
2023-03-19T15:55:16.769Z,14.32
2023-03-19T15:57:45.616Z,14.24
2023-03-19T16:00:18.229Z,14.16
2023-03-19T16:02:50.476Z,14.09
2023-03-19T16:05:30.926Z,14.03
2023-03-19T16:08:16.919Z,13.93
2023-03-19T16:10:47.566Z,13.84
2023-03-19T16:13:25.833Z,13.76
2023-03-19T16:16:00.947Z,13.67
2023-03-19T16:18:40.590Z,13.58
2023-03-19T16:21:34.030Z,13.49
2023-03-19T16:24:14.036Z,13.40
2023-03-19T16:26:46.847Z,13.31
2023-03-19T16:29:20.906Z,13.21
2023-03-19T16:31:52.655Z,13.10
2023-03-19T16:34:39.576Z,13.00
2023-03-19T16:37:41.089Z,12.86
2023-03-19T16:40:12.270Z,12.71
2023-03-19T16:42:56.075Z,12.55
2023-03-19T16:45:31.691Z,12.35
2023-03-19T16:48:03.501Z,12.13
2023-03-19T16:50:40.373Z,11.95
2023-03-19T16:53:22.414Z,11.82
2023-03-19T16:55:54.199Z,11.68
2023-03-19T16:58:31.927Z,11.55
2023-03-19T17:01:01.287Z,11.43
2023-03-19T17:03:30.364Z,11.31
2023-03-19T17:05:58.724Z,11.19
2023-03-19T17:08:26.924Z,11.06
2023-03-19T17:10:55.663Z,10.94
2023-03-19T17:13:30.186Z,10.82
2023-03-19T17:16:02.869Z,10.69
2023-03-19T17:18:36.629Z,10.57
2023-03-19T17:21:16.013Z,10.43
2023-03-19T17:23:44.334Z,10.28
2023-03-19T17:26:17.424Z,10.17
2023-03-19T17:28:46.343Z,10.05
2023-03-19T17:31:28.811Z,9.94
2023-03-19T17:34:16.781Z,9.81
2023-03-19T17:36:51.405Z,9.68
2023-03-19T17:39:20.002Z,9.57
2023-03-19T17:41:48.383Z,9.46
2023-03-19T17:44:16.597Z,9.35
2023-03-19T17:46:47.562Z,9.21
2023-03-19T17:49:29.158Z,9.05
2023-03-19T17:51:58.130Z,8.90
2023-03-19T17:54:27.335Z,8.80
2023-03-19T17:56:56.244Z,8.73
2023-03-19T17:59:25.944Z,8.68
2023-03-19T18:01:54.154Z,8.60
2023-03-19T18:04:22.826Z,8.54
2023-03-19T18:06:56.120Z,8.45
2023-03-19T18:09:28.702Z,8.38
2023-03-19T18:11:57.842Z,8.33
2023-03-19T18:14:26.134Z,8.27
2023-03-19T18:16:56.115Z,8.21
2023-03-19T18:19:33.648Z,8.17
2023-03-19T18:22:02.146Z,8.11
2023-03-19T18:24:30.385Z,8.06
2023-03-19T18:26:58.361Z,8.01
2023-03-19T18:29:26.425Z,7.96
2023-03-19T18:31:54.879Z,7.88
2023-03-19T18:34:23.090Z,7.82
2023-03-19T18:36:52.204Z,7.78
2023-03-19T18:39:21.498Z,7.74
2023-03-19T18:41:49.776Z,7.70
2023-03-19T18:44:19.254Z,7.64
2023-03-19T18:46:47.377Z,7.59
2023-03-19T18:49:26.770Z,7.54
2023-03-19T18:52:02.664Z,7.51
2023-03-19T18:54:32.538Z,7.48
2023-03-19T18:57:02.030Z,7.45
2023-03-19T18:59:33.248Z,7.41
2023-03-19T19:04:36.594Z,7.33
2023-03-19T19:07:05.075Z,7.31
2023-03-19T19:09:33.323Z,7.28
2023-03-19T19:12:02.252Z,7.25
2023-03-19T19:14:30.898Z,7.23
2023-03-19T19:16:59.490Z,7.19
2023-03-19T19:19:27.931Z,7.16
2023-03-19T19:21:56.105Z,7.13
2023-03-19T19:24:24.520Z,7.09
2023-03-19T19:26:54.528Z,7.03
2023-03-19T19:29:28.571Z,6.96
2023-03-19T19:31:57.252Z,6.93
2023-03-19T19:34:25.304Z,6.90
2023-03-19T19:36:57.734Z,6.88
2023-03-19T19:39:27.115Z,6.85
2023-03-19T19:41:56.224Z,6.80
2023-03-19T19:44:24.349Z,6.76
2023-03-19T19:46:54.731Z,6.73
2023-03-19T19:49:23.295Z,6.68
2023-03-19T19:51:51.481Z,6.63
2023-03-19T19:54:19.484Z,6.57
2023-03-19T19:56:47.692Z,6.51
2023-03-19T19:59:16.193Z,6.46
2023-03-19T20:01:44.516Z,6.42
2023-03-19T20:04:14.821Z,6.39
2023-03-19T20:06:43.145Z,6.37
2023-03-19T20:09:11.299Z,6.34
2023-03-19T20:11:39.605Z,6.29
2023-03-19T20:14:12.241Z,6.23
2023-03-19T20:16:40.365Z,6.15
2023-03-19T20:19:19.478Z,6.07
2023-03-19T20:21:47.866Z,6.00
2023-03-19T20:24:15.873Z,5.92
2023-03-19T20:26:44.007Z,5.84
2023-03-19T20:29:16.172Z,5.76
2023-03-19T20:31:46.017Z,5.69
2023-03-19T20:34:22.516Z,5.64
2023-03-19T20:36:54.105Z,5.56
2023-03-19T20:39:22.534Z,5.48
2023-03-19T20:41:51.702Z,5.40
2023-03-19T20:44:22.682Z,5.33
2023-03-19T20:46:50.884Z,5.27
2023-03-19T20:49:19.047Z,5.20
2023-03-19T20:51:47.046Z,5.11
2023-03-19T20:54:15.036Z,5.01
2023-03-19T20:56:45.927Z,4.90
2023-03-19T20:59:15.499Z,4.82
2023-03-19T21:01:43.761Z,4.76
2023-03-19T21:04:18.922Z,4.70
2023-03-19T21:06:53.451Z,4.65
2023-03-19T21:09:24.075Z,4.60
2023-03-19T21:11:52.987Z,4.57
2023-03-19T21:14:23.454Z,4.52
2023-03-19T21:16:51.902Z,4.46
2023-03-19T21:19:20.272Z,4.39
2023-03-19T21:21:48.490Z,4.33
2023-03-19T21:24:20.517Z,4.27
2023-03-19T21:26:48.815Z,4.23
2023-03-19T21:29:34.788Z,4.17
2023-03-19T21:32:02.782Z,4.12
2023-03-19T21:34:31.116Z,4.06
2023-03-19T21:36:59.280Z,4.01
2023-03-19T21:39:27.403Z,3.95
2023-03-19T21:41:57.189Z,3.89
2023-03-19T21:44:29.685Z,3.84
2023-03-19T21:46:58.063Z,3.80
2023-03-19T21:49:26.422Z,3.77
2023-03-19T21:51:57.027Z,3.76
2023-03-19T21:54:25.048Z,3.72
2023-03-19T21:56:53.485Z,3.68
2023-03-19T21:59:29.484Z,3.63
2023-03-19T22:01:57.889Z,3.57
2023-03-19T22:04:25.886Z,3.55
2023-03-19T22:06:54.496Z,3.52
2023-03-19T22:09:22.756Z,3.51
2023-03-19T22:11:50.914Z,3.48
2023-03-19T22:14:26.972Z,3.45
2023-03-19T22:16:57.080Z,3.44
2023-03-19T22:19:25.876Z,3.40
2023-03-19T22:21:54.101Z,3.39
2023-03-19T22:24:22.217Z,3.37
2023-03-19T22:26:56.419Z,3.35
2023-03-19T22:29:25.652Z,3.34
2023-03-19T22:31:56.139Z,3.34
2023-03-19T22:34:27.715Z,3.34
2023-03-19T22:36:56.740Z,3.33
2023-03-19T22:39:24.843Z,3.33
2023-03-19T22:41:53.108Z,3.30
2023-03-19T22:44:28.100Z,3.28
2023-03-19T22:46:59.582Z,3.26
2023-03-19T22:49:29.866Z,3.23
2023-03-19T22:51:58.710Z,3.21
2023-03-19T22:54:26.821Z,3.19
2023-03-19T22:56:55.302Z,3.18
2023-03-19T22:59:23.641Z,3.17
2023-03-19T23:01:52.088Z,3.14
2023-03-19T23:04:23.160Z,3.12
2023-03-19T23:06:53.524Z,3.09
2023-03-19T23:09:24.184Z,3.06
2023-03-19T23:11:53.666Z,3.03
2023-03-19T23:14:29.590Z,3.01
2023-03-19T23:17:15.700Z,2.99
2023-03-19T23:19:43.907Z,2.97
2023-03-19T23:22:16.588Z,2.94
2023-03-19T23:24:44.857Z,2.93
2023-03-19T23:27:31.168Z,2.93
2023-03-19T23:30:00.997Z,2.90
2023-03-19T23:32:29.102Z,2.89
2023-03-19T23:35:01.454Z,2.87
2023-03-19T23:37:56.514Z,2.85
2023-03-19T23:40:30.109Z,2.83
2023-03-19T23:43:00.207Z,2.82
2023-03-19T23:45:38.406Z,2.80
2023-03-19T23:48:13.933Z,2.76
2023-03-19T23:50:42.148Z,2.72
2023-03-19T23:53:18.754Z,2.69
2023-03-19T23:55:49.597Z,2.65
2023-03-19T23:58:18.623Z,2.64
